Dallas, Texas
Current Conditions -  °F | °C
As of 5:53 PM on Saturday 22 Nov 2014 (Local Time) from KDAL Reporting Station
Moderate Rain Moderate Rain  
Wind Chill: 17°   Ceiling: 9500
Heat Index: 17°   Visibility: 5mi
Dew Point: 15°   Wind: 20mph
Humidity: 90%   Direction: 140°SE
Pressure: 29.84"   Gusts: 26mph
Location:  32.78°N, 96.79°W
Report Text: KDAL 222353Z 14017G23KT 5SM RA BR FEW014 SCT035 OVC095 17/15 A2984 RMK AO2 SLP102 P0009 60017 T01670150 10172 20161 55006
Loading
Personal Weather Stations






























Interactive Weather Map New forecast layout! Learn more

10-Day Weather Forecast

Advertisements
Track Severe Weather on mobile